createdAt,value
2017-08-31T00:00:34.927Z,25.00
2017-08-31T00:03:02.537Z,26.50
2017-08-31T00:05:30.184Z,25.40
2017-08-31T00:07:57.826Z,24.93
2017-08-31T00:10:25.421Z,25.23
2017-08-31T00:12:53.052Z,26.20
2017-08-31T00:15:20.689Z,27.37
2017-08-31T00:17:48.267Z,25.73
2017-08-31T00:20:15.934Z,27.60
2017-08-31T00:22:43.523Z,25.17
2017-08-31T00:25:12.008Z,28.70
2017-08-31T00:27:39.619Z,27.17
2017-08-31T00:30:07.241Z,24.73
2017-08-31T00:32:34.880Z,26.80
2017-08-31T00:35:02.553Z,27.90
2017-08-31T00:37:30.130Z,27.43
2017-08-31T00:39:57.797Z,30.40
2017-08-31T00:42:25.409Z,26.50
2017-08-31T00:44:53.685Z,26.73
2017-08-31T00:47:21.342Z,25.73
2017-08-31T00:49:48.944Z,27.60
2017-08-31T00:52:16.579Z,27.57
2017-08-31T00:54:44.211Z,28.23
2017-08-31T00:57:11.830Z,25.80
2017-08-31T00:59:39.468Z,28.90
2017-08-31T01:02:07.276Z,28.97
2017-08-31T01:04:34.910Z,26.30
2017-08-31T01:07:02.503Z,26.47
2017-08-31T01:09:30.200Z,27.37
2017-08-31T01:11:57.822Z,26.90
2017-08-31T01:14:25.432Z,27.97
2017-08-31T01:16:53.090Z,26.57
2017-08-31T01:19:20.714Z,25.57
2017-08-31T01:21:48.371Z,25.77
2017-08-31T01:24:16.025Z,25.33
2017-08-31T01:26:43.654Z,24.43
2017-08-31T01:29:11.258Z,22.40
2017-08-31T01:31:38.888Z,21.10
2017-08-31T01:34:06.522Z,21.13
2017-08-31T01:36:34.155Z,16.37
2017-08-31T01:39:01.795Z,12.90
2017-08-31T01:41:29.441Z,11.57
2017-08-31T01:43:57.049Z,10.90
2017-08-31T01:46:24.737Z,10.53
2017-08-31T01:48:52.386Z,9.67
2017-08-31T01:51:19.990Z,9.67
2017-08-31T01:53:47.618Z,8.93
2017-08-31T01:56:15.246Z,8.83
2017-08-31T01:58:42.869Z,7.13
2017-08-31T02:01:10.512Z,7.70
2017-08-31T02:03:38.121Z,7.77
2017-08-31T02:06:05.729Z,8.17
2017-08-31T02:08:33.458Z,8.00
2017-08-31T02:11:01.099Z,6.73
2017-08-31T02:13:28.729Z,7.77
2017-08-31T02:15:56.352Z,7.70
2017-08-31T02:18:23.946Z,6.00
2017-08-31T02:20:51.589Z,7.20
2017-08-31T02:23:19.261Z,7.00
2017-08-31T02:25:46.894Z,6.87
2017-08-31T02:28:14.553Z,6.30
2017-08-31T02:30:42.150Z,6.17
2017-08-31T02:33:09.743Z,5.87
2017-08-31T02:35:37.386Z,5.50
2017-08-31T02:38:05.061Z,5.63
2017-08-31T02:40:32.689Z,4.90
2017-08-31T02:43:00.506Z,6.47
2017-08-31T02:45:28.247Z,6.10
2017-08-31T02:47:55.864Z,6.93
2017-08-31T02:50:23.460Z,6.03
2017-08-31T02:52:51.054Z,5.40
2017-08-31T02:55:18.728Z,5.10
2017-08-31T02:57:46.381Z,5.70
2017-08-31T03:00:13.986Z,5.70
2017-08-31T03:02:41.587Z,5.57
2017-08-31T03:05:09.215Z,4.93
2017-08-31T03:07:36.802Z,4.10
2017-08-31T03:10:04.721Z,3.73
2017-08-31T03:12:32.357Z,4.60
2017-08-31T03:14:59.946Z,4.33
2017-08-31T03:17:27.546Z,3.83
2017-08-31T03:19:55.201Z,3.57
2017-08-31T03:22:22.844Z,3.43
2017-08-31T03:24:50.484Z,3.23
2017-08-31T03:27:18.134Z,3.60
2017-08-31T03:29:45.792Z,3.90
2017-08-31T03:32:13.446Z,4.43
2017-08-31T03:34:41.325Z,4.47
2017-08-31T03:37:08.992Z,4.30
2017-08-31T03:39:36.953Z,4.33
2017-08-31T03:42:04.582Z,4.60
2017-08-31T03:44:32.236Z,4.63
2017-08-31T03:46:59.853Z,4.53
2017-08-31T03:49:28.496Z,4.60
2017-08-31T03:51:56.098Z,4.53
2017-08-31T03:54:23.728Z,3.40
2017-08-31T03:56:51.341Z,5.03
2017-08-31T03:59:18.928Z,3.60
2017-08-31T04:01:46.541Z,3.90
2017-08-31T04:04:14.198Z,4.30
2017-08-31T04:06:41.769Z,4.73
2017-08-31T04:09:09.373Z,3.97
2017-08-31T04:11:37.035Z,4.73
2017-08-31T04:14:04.612Z,5.13
2017-08-31T04:16:32.235Z,5.23
2017-08-31T04:19:00.261Z,3.90
2017-08-31T04:21:27.856Z,4.10
2017-08-31T04:23:55.453Z,3.90
2017-08-31T04:26:23.044Z,5.00
2017-08-31T04:28:50.650Z,4.77
2017-08-31T04:31:18.242Z,4.50
2017-08-31T04:33:45.852Z,4.37
2017-08-31T04:36:13.553Z,3.87
2017-08-31T04:38:41.199Z,3.97
2017-08-31T04:41:08.797Z,3.50
2017-08-31T04:43:36.440Z,3.60
2017-08-31T04:46:04.082Z,4.90
2017-08-31T04:48:31.664Z,3.60
2017-08-31T04:50:59.280Z,4.80
2017-08-31T04:53:26.889Z,4.13
2017-08-31T04:55:54.465Z,4.73
2017-08-31T04:58:22.057Z,3.93
2017-08-31T05:00:49.701Z,3.87
2017-08-31T05:03:18.363Z,3.93
2017-08-31T05:05:45.967Z,4.07
2017-08-31T05:08:14.493Z,4.30
2017-08-31T05:10:42.663Z,4.23
2017-08-31T05:13:10.270Z,4.00
2017-08-31T05:15:37.891Z,3.60
2017-08-31T05:18:05.497Z,4.80
2017-08-31T05:20:33.325Z,3.63
2017-08-31T05:23:01.032Z,3.80
2017-08-31T05:25:28.653Z,3.97
2017-08-31T05:27:56.306Z,4.20
2017-08-31T05:30:23.938Z,4.20
2017-08-31T05:32:51.608Z,3.83
2017-08-31T05:35:19.292Z,3.77
2017-08-31T05:37:46.984Z,3.87
2017-08-31T05:40:14.611Z,4.07
2017-08-31T05:42:42.243Z,4.37
2017-08-31T05:45:10.506Z,3.80
2017-08-31T05:47:38.122Z,5.50
2017-08-31T05:50:05.694Z,4.80
2017-08-31T05:52:33.345Z,4.43
2017-08-31T05:55:00.969Z,4.63
2017-08-31T05:57:29.326Z,4.33
2017-08-31T05:59:56.930Z,4.30
2017-08-31T06:02:24.539Z,3.50
2017-08-31T06:04:52.456Z,3.77
2017-08-31T06:07:20.120Z,3.10
2017-08-31T06:09:47.717Z,3.30
2017-08-31T06:12:15.340Z,3.90
2017-08-31T06:14:42.981Z,2.80
2017-08-31T06:17:10.571Z,2.77
2017-08-31T06:19:38.173Z,3.30
2017-08-31T06:22:06.706Z,2.90
2017-08-31T06:24:34.292Z,3.63
2017-08-31T06:27:01.971Z,2.73
2017-08-31T06:29:30.420Z,2.77
2017-08-31T06:31:58.026Z,3.33
2017-08-31T06:34:25.639Z,3.10
2017-08-31T06:36:53.234Z,2.53
2017-08-31T06:39:20.826Z,2.57
2017-08-31T06:41:48.434Z,2.40
2017-08-31T06:44:16.890Z,1.87
2017-08-31T06:46:44.519Z,2.33
2017-08-31T06:49:12.194Z,2.90
2017-08-31T06:51:39.771Z,2.13
2017-08-31T06:54:07.451Z,2.30
2017-08-31T06:56:35.110Z,2.00
2017-08-31T06:59:02.715Z,2.20
2017-08-31T07:01:30.288Z,2.43
2017-08-31T07:03:57.900Z,2.40
2017-08-31T07:06:25.522Z,2.30
2017-08-31T07:08:53.124Z,3.03
2017-08-31T07:11:20.782Z,3.50
2017-08-31T07:13:48.421Z,2.30
2017-08-31T07:16:16.665Z,3.40
2017-08-31T07:18:44.260Z,2.80
2017-08-31T07:21:11.862Z,3.30
2017-08-31T07:23:39.453Z,3.13
2017-08-31T07:26:07.086Z,3.80
2017-08-31T07:28:34.680Z,4.40
2017-08-31T07:31:02.313Z,3.67
2017-08-31T07:33:30.468Z,3.27
2017-08-31T07:35:58.104Z,4.57
2017-08-31T07:38:25.773Z,3.90
2017-08-31T07:40:54.356Z,5.10
2017-08-31T07:43:21.964Z,3.60
2017-08-31T07:45:49.566Z,3.93
2017-08-31T07:48:17.769Z,3.60
2017-08-31T07:50:45.337Z,3.80
2017-08-31T07:53:12.985Z,3.00
2017-08-31T07:55:40.656Z,3.73
2017-08-31T07:58:08.262Z,3.20
2017-08-31T08:00:35.840Z,4.00
2017-08-31T08:03:03.549Z,3.37
2017-08-31T08:05:31.609Z,3.97
2017-08-31T08:07:59.269Z,3.90
2017-08-31T08:10:27.424Z,2.83
2017-08-31T08:12:55.035Z,4.00
2017-08-31T08:15:22.646Z,2.87
2017-08-31T08:17:50.272Z,2.73
2017-08-31T08:20:17.850Z,3.10
2017-08-31T08:22:46.366Z,2.73
2017-08-31T08:25:14.058Z,2.30
2017-08-31T08:27:41.728Z,2.50
2017-08-31T08:30:09.326Z,2.50
2017-08-31T08:32:37.005Z,1.93
2017-08-31T08:35:04.638Z,1.90
2017-08-31T08:37:33.123Z,1.60
2017-08-31T08:40:00.708Z,1.50
2017-08-31T08:42:28.321Z,1.80
2017-08-31T08:44:55.916Z,1.10
2017-08-31T08:47:23.509Z,1.40
2017-08-31T08:49:51.950Z,1.43
2017-08-31T08:52:19.543Z,1.40
2017-08-31T08:54:47.097Z,2.00
2017-08-31T08:57:15.636Z,1.60
2017-08-31T08:59:43.257Z,1.37
2017-08-31T09:02:10.862Z,1.20
2017-08-31T09:04:38.472Z,1.63
2017-08-31T09:07:06.166Z,1.40
2017-08-31T09:09:33.799Z,1.80
2017-08-31T09:12:02.359Z,0.80
2017-08-31T09:14:29.955Z,0.80
2017-08-31T09:16:57.578Z,1.00
2017-08-31T09:19:25.193Z,1.43
2017-08-31T09:21:52.845Z,1.00
2017-08-31T09:24:20.490Z,1.43
2017-08-31T09:26:48.099Z,0.80
2017-08-31T09:29:16.276Z,1.30
2017-08-31T09:31:43.895Z,1.00
2017-08-31T09:34:12.440Z,0.60
2017-08-31T09:36:40.048Z,1.03
2017-08-31T09:39:07.676Z,1.00
2017-08-31T09:41:35.277Z,1.00
2017-08-31T09:44:03.014Z,0.93
2017-08-31T09:46:30.658Z,1.20
2017-08-31T09:48:58.365Z,0.90
2017-08-31T09:51:26.650Z,1.73
2017-08-31T09:53:54.205Z,1.80
2017-08-31T09:56:21.796Z,1.50
2017-08-31T09:58:49.510Z,1.30
2017-08-31T10:01:17.078Z,1.20
2017-08-31T10:03:44.676Z,1.40
2017-08-31T10:06:12.301Z,2.00
2017-08-31T10:08:39.970Z,5.63
2017-08-31T10:11:07.562Z,3.20
2017-08-31T10:13:35.185Z,1.27
2017-08-31T10:16:03.592Z,0.90
2017-08-31T10:18:32.181Z,0.87
2017-08-31T10:20:59.841Z,0.90
2017-08-31T10:23:28.230Z,1.47
2017-08-31T10:25:55.860Z,0.90
2017-08-31T10:28:23.455Z,0.77
2017-08-31T10:30:51.075Z,0.60
2017-08-31T10:33:19.954Z,0.80
2017-08-31T10:35:47.575Z,1.13
2017-08-31T10:38:15.188Z,1.70
2017-08-31T10:40:42.805Z,0.93
2017-08-31T10:43:10.668Z,0.97
2017-08-31T10:45:38.377Z,1.00
2017-08-31T10:48:06.102Z,0.90
2017-08-31T10:50:33.715Z,1.73
2017-08-31T10:53:01.355Z,1.10
2017-08-31T10:55:28.970Z,1.33
2017-08-31T10:57:56.564Z,1.27
2017-08-31T11:00:24.185Z,1.40
2017-08-31T11:02:52.014Z,1.77
2017-08-31T11:05:20.062Z,0.90
2017-08-31T11:07:48.568Z,1.20
2017-08-31T11:10:16.205Z,1.27
2017-08-31T11:12:43.845Z,1.60
2017-08-31T11:15:11.519Z,1.10
2017-08-31T11:17:39.203Z,1.00
2017-08-31T11:20:06.936Z,1.50
2017-08-31T11:22:35.368Z,1.10
2017-08-31T11:25:03.100Z,1.10
2017-08-31T11:27:30.842Z,1.07
2017-08-31T11:29:58.449Z,1.27
2017-08-31T11:32:26.685Z,2.50
2017-08-31T11:34:55.141Z,1.40
2017-08-31T11:37:22.792Z,1.00
2017-08-31T11:39:50.468Z,0.77
2017-08-31T11:42:18.098Z,1.13
2017-08-31T11:44:45.752Z,1.37
2017-08-31T11:47:13.422Z,0.80
2017-08-31T11:49:42.137Z,1.60
2017-08-31T11:52:09.742Z,1.10
2017-08-31T11:54:38.236Z,1.20
2017-08-31T11:57:05.901Z,1.40
2017-08-31T11:59:33.604Z,1.10
2017-08-31T12:02:01.252Z,1.20
2017-08-31T12:04:28.882Z,1.10
2017-08-31T12:06:56.480Z,1.30
2017-08-31T12:09:24.094Z,1.20
2017-08-31T12:11:51.702Z,0.70
2017-08-31T12:14:19.330Z,0.93
2017-08-31T12:16:46.929Z,1.10
2017-08-31T12:19:15.519Z,1.00
2017-08-31T12:21:43.160Z,0.93
2017-08-31T12:24:10.790Z,0.90
2017-08-31T12:26:38.409Z,0.70
2017-08-31T12:29:06.004Z,1.10
2017-08-31T12:31:33.671Z,1.10
2017-08-31T12:34:01.255Z,1.20
2017-08-31T12:36:28.908Z,1.17
2017-08-31T12:38:58.173Z,1.47
2017-08-31T12:41:25.837Z,1.07
2017-08-31T12:43:54.389Z,1.27
2017-08-31T12:46:22.013Z,0.80
2017-08-31T12:48:49.694Z,2.63
2017-08-31T12:51:17.322Z,1.00
2017-08-31T12:53:44.947Z,1.13
2017-08-31T12:56:12.504Z,1.20
2017-08-31T12:58:40.977Z,1.13
2017-08-31T13:01:08.564Z,1.20
2017-08-31T13:03:36.225Z,1.93
2017-08-31T13:06:03.895Z,1.40
2017-08-31T13:08:31.478Z,1.70
2017-08-31T13:10:59.067Z,2.47
2017-08-31T13:13:27.610Z,1.20
2017-08-31T13:15:55.240Z,1.73
2017-08-31T13:18:22.876Z,1.50
2017-08-31T13:20:50.495Z,1.50
2017-08-31T13:23:18.236Z,1.57
2017-08-31T13:25:45.845Z,1.63
2017-08-31T13:28:14.354Z,1.30
2017-08-31T13:30:41.988Z,2.27
2017-08-31T13:33:09.589Z,2.10
2017-08-31T13:35:37.259Z,2.07
2017-08-31T13:38:04.864Z,1.53
2017-08-31T13:40:32.469Z,2.20
2017-08-31T13:43:00.900Z,1.90
2017-08-31T13:45:28.527Z,1.70
2017-08-31T13:47:57.229Z,1.90
2017-08-31T13:50:24.884Z,2.30
2017-08-31T13:52:52.477Z,1.73
2017-08-31T13:55:20.089Z,2.20
2017-08-31T13:57:48.476Z,1.80
2017-08-31T14:00:16.066Z,1.80
2017-08-31T14:02:43.817Z,2.20
2017-08-31T14:05:12.075Z,2.00
2017-08-31T14:10:13.774Z,2.57
2017-08-31T14:12:41.399Z,2.40
2017-08-31T14:15:08.997Z,3.23
2017-08-31T14:17:36.609Z,2.40
2017-08-31T14:20:04.217Z,2.17
2017-08-31T14:22:31.844Z,2.37
2017-08-31T14:24:59.466Z,2.00
2017-08-31T14:27:27.082Z,3.10
2017-08-31T14:29:54.688Z,2.07
2017-08-31T14:32:22.349Z,2.30
2017-08-31T14:34:49.978Z,2.27
2017-08-31T14:37:18.682Z,1.63
2017-08-31T14:39:47.241Z,2.40
2017-08-31T14:42:14.864Z,2.20
2017-08-31T14:44:42.491Z,2.20
2017-08-31T14:47:10.125Z,2.40
2017-08-31T14:49:39.353Z,2.70
2017-08-31T14:52:06.937Z,2.87
2017-08-31T14:54:35.465Z,2.40
2017-08-31T14:57:03.148Z,2.03
2017-08-31T14:59:30.823Z,2.90
2017-08-31T15:01:58.450Z,2.00
2017-08-31T15:04:26.062Z,1.97
2017-08-31T15:06:53.692Z,3.30
2017-08-31T15:09:21.343Z,3.10
2017-08-31T15:11:48.932Z,3.00
2017-08-31T15:14:16.580Z,2.77
2017-08-31T15:16:44.533Z,1.90
2017-08-31T15:19:12.125Z,2.37
2017-08-31T15:21:39.733Z,2.17
2017-08-31T15:24:07.383Z,3.00
2017-08-31T15:26:34.982Z,1.73
2017-08-31T15:29:02.580Z,2.47
2017-08-31T15:31:30.262Z,2.23
2017-08-31T15:33:57.895Z,2.53
2017-08-31T15:36:25.541Z,2.67
2017-08-31T15:38:53.182Z,2.37
2017-08-31T15:41:20.749Z,2.57
2017-08-31T15:43:48.368Z,14.70
2017-08-31T15:46:16.004Z,3.80
2017-08-31T15:48:44.314Z,2.70
2017-08-31T15:51:11.900Z,2.70
2017-08-31T15:53:39.502Z,2.80
2017-08-31T15:56:07.101Z,1.93
2017-08-31T15:58:34.705Z,2.50
2017-08-31T16:01:02.744Z,2.27
2017-08-31T16:03:30.350Z,2.00
2017-08-31T16:05:57.966Z,2.27
2017-08-31T16:08:25.646Z,2.33
2017-08-31T16:10:53.238Z,2.10
2017-08-31T16:13:21.006Z,2.33
2017-08-31T16:15:48.638Z,2.50
2017-08-31T16:18:16.209Z,3.80
2017-08-31T16:20:43.848Z,2.20
2017-08-31T16:23:11.473Z,3.20
2017-08-31T16:25:39.121Z,2.27
2017-08-31T16:28:06.686Z,2.53
2017-08-31T16:30:35.011Z,2.20
2017-08-31T16:33:02.633Z,2.87
2017-08-31T16:35:30.209Z,2.60
2017-08-31T16:37:57.870Z,2.87
2017-08-31T16:40:25.539Z,3.93
2017-08-31T16:42:53.133Z,2.17
2017-08-31T16:45:20.795Z,2.27
2017-08-31T16:47:48.420Z,2.57
2017-08-31T16:50:16.056Z,2.93
2017-08-31T16:52:43.643Z,2.60
2017-08-31T16:55:11.232Z,2.93
2017-08-31T16:57:38.871Z,8.47
2017-08-31T17:00:06.512Z,2.57
2017-08-31T17:02:34.766Z,3.00
2017-08-31T17:05:02.908Z,2.63
2017-08-31T17:07:30.553Z,2.40
2017-08-31T17:09:58.253Z,2.50
2017-08-31T17:12:25.896Z,2.73
2017-08-31T17:14:53.543Z,5.33
2017-08-31T17:17:21.164Z,2.30
2017-08-31T17:19:49.638Z,4.03
2017-08-31T17:22:17.201Z,2.60
2017-08-31T17:24:44.830Z,3.10
2017-08-31T17:27:12.443Z,3.17
2017-08-31T17:29:40.033Z,3.50
2017-08-31T17:32:08.465Z,3.27
2017-08-31T17:34:36.105Z,3.07
2017-08-31T17:37:03.715Z,2.77
2017-08-31T17:39:31.332Z,2.57
2017-08-31T17:41:58.968Z,2.60
2017-08-31T17:44:26.580Z,3.83
2017-08-31T17:46:54.188Z,3.00
2017-08-31T17:49:21.812Z,2.43
2017-08-31T17:51:49.718Z,2.40
2017-08-31T17:54:17.343Z,3.47
2017-08-31T17:56:45.005Z,3.60
2017-08-31T17:59:12.692Z,3.67
2017-08-31T18:01:40.277Z,3.50
2017-08-31T18:04:07.904Z,2.50
2017-08-31T18:06:35.525Z,2.50
2017-08-31T18:09:03.134Z,3.13
2017-08-31T18:11:30.747Z,3.40
2017-08-31T18:13:58.331Z,3.80
2017-08-31T18:16:25.956Z,4.87
2017-08-31T18:18:53.608Z,2.30
2017-08-31T18:21:21.205Z,2.50
2017-08-31T18:23:48.830Z,2.30
2017-08-31T18:26:16.450Z,2.50
2017-08-31T18:28:44.053Z,2.80
2017-08-31T18:31:11.711Z,2.80
2017-08-31T18:33:39.341Z,2.20
2017-08-31T18:36:06.948Z,1.97
2017-08-31T18:38:34.527Z,3.37
2017-08-31T18:41:02.144Z,4.00
2017-08-31T18:43:29.777Z,2.97
2017-08-31T18:45:58.296Z,2.20
2017-08-31T18:48:27.038Z,3.00
2017-08-31T18:50:54.754Z,3.20
2017-08-31T18:53:22.426Z,3.50
2017-08-31T18:55:50.042Z,4.03
2017-08-31T18:58:17.612Z,2.87
2017-08-31T19:00:45.287Z,3.70
2017-08-31T19:03:12.881Z,3.90
2017-08-31T19:05:40.430Z,3.63
2017-08-31T19:08:08.069Z,3.50
2017-08-31T19:10:35.763Z,3.20
2017-08-31T19:13:03.321Z,3.00
2017-08-31T19:15:31.014Z,3.87
2017-08-31T19:17:58.642Z,4.00
2017-08-31T19:20:26.286Z,3.70
2017-08-31T19:22:53.960Z,3.87
2017-08-31T19:25:21.610Z,3.83
2017-08-31T19:27:49.222Z,3.10
2017-08-31T19:30:16.893Z,2.40
2017-08-31T19:32:44.511Z,2.57
2017-08-31T19:35:12.112Z,4.13
2017-08-31T19:37:43.286Z,4.50
2017-08-31T19:40:10.886Z,3.90
2017-08-31T19:42:38.513Z,3.53
2017-08-31T19:45:07.044Z,3.03
2017-08-31T19:47:34.864Z,3.97
2017-08-31T19:50:02.440Z,4.63
2017-08-31T19:52:30.025Z,4.00
2017-08-31T19:54:57.664Z,4.50
2017-08-31T19:57:25.264Z,4.60
2017-08-31T19:59:52.814Z,4.60
2017-08-31T20:02:20.395Z,4.53
2017-08-31T20:04:48.010Z,4.00
2017-08-31T20:07:15.670Z,4.13
2017-08-31T20:09:43.345Z,4.93
2017-08-31T20:12:10.997Z,5.03
2017-08-31T20:14:38.607Z,5.17
2017-08-31T20:17:06.215Z,5.07
2017-08-31T20:19:33.867Z,5.77
2017-08-31T20:22:01.465Z,6.67
2017-08-31T20:24:29.071Z,5.90
2017-08-31T20:26:56.690Z,7.17
2017-08-31T20:29:24.268Z,6.57
2017-08-31T20:31:51.851Z,6.63
2017-08-31T20:34:19.676Z,7.10
2017-08-31T20:36:47.278Z,6.80
2017-08-31T20:39:14.877Z,6.30
2017-08-31T20:41:42.493Z,6.83
2017-08-31T20:44:10.587Z,6.13
2017-08-31T20:46:39.210Z,7.13
2017-08-31T20:49:07.923Z,6.73
2017-08-31T20:51:35.709Z,6.43
2017-08-31T20:54:03.524Z,7.30
2017-08-31T20:56:32.169Z,6.27
2017-08-31T20:58:59.869Z,6.77
2017-08-31T21:01:27.491Z,6.63
2017-08-31T21:03:55.081Z,6.73
2017-08-31T21:06:23.185Z,7.30
2017-08-31T21:08:50.802Z,7.87
2017-08-31T21:11:18.673Z,6.73
2017-08-31T21:13:46.257Z,7.40
2017-08-31T21:16:13.901Z,7.00
2017-08-31T21:18:41.603Z,6.43
2017-08-31T21:21:09.169Z,6.03
2017-08-31T21:23:36.746Z,7.40
2017-08-31T21:26:04.365Z,7.33
2017-08-31T21:28:31.976Z,6.10
2017-08-31T21:30:59.592Z,6.70
2017-08-31T21:33:27.207Z,6.80
2017-08-31T21:35:55.047Z,6.27
2017-08-31T21:38:22.650Z,6.90
2017-08-31T21:40:50.251Z,6.62
2017-08-31T21:43:18.226Z,6.63
2017-08-31T21:45:45.850Z,7.00
2017-08-31T21:48:13.474Z,6.70
2017-08-31T21:50:41.127Z,6.80
2017-08-31T21:53:08.724Z,7.07
2017-08-31T21:55:36.284Z,6.77
2017-08-31T21:58:03.918Z,16.23
2017-08-31T22:00:31.578Z,17.83
2017-08-31T22:02:59.220Z,17.47
2017-08-31T22:05:26.884Z,18.48
2017-08-31T22:07:54.570Z,22.00
2017-08-31T22:10:22.250Z,20.58
2017-08-31T22:12:49.921Z,15.60
2017-08-31T22:15:17.524Z,14.40
2017-08-31T22:17:45.115Z,12.55
2017-08-31T22:20:12.803Z,11.12
2017-08-31T22:22:40.449Z,9.98
2017-08-31T22:25:08.061Z,8.97
2017-08-31T22:27:35.710Z,9.10
2017-08-31T22:30:03.310Z,9.00
2017-08-31T22:32:31.551Z,9.40
2017-08-31T22:34:59.173Z,8.43
2017-08-31T22:37:26.896Z,9.73
2017-08-31T22:39:54.545Z,8.48
2017-08-31T22:42:22.253Z,10.80
2017-08-31T22:44:50.100Z,11.52
2017-08-31T22:47:17.910Z,11.07
2017-08-31T22:49:45.576Z,10.98
2017-08-31T22:52:13.182Z,12.68
2017-08-31T22:54:48.633Z,12.20
2017-08-31T22:57:28.069Z,13.40
2017-08-31T22:59:55.726Z,13.75
2017-08-31T23:02:23.383Z,14.20
2017-08-31T23:04:51.000Z,13.52
2017-08-31T23:07:18.630Z,13.45
2017-08-31T23:09:46.274Z,15.98
2017-08-31T23:12:13.890Z,16.10
2017-08-31T23:14:41.511Z,15.45
2017-08-31T23:17:09.108Z,16.52
2017-08-31T23:19:36.713Z,15.32
2017-08-31T23:22:04.345Z,14.25
2017-08-31T23:24:31.957Z,14.93
2017-08-31T23:26:59.626Z,14.93
2017-08-31T23:29:27.227Z,12.77
2017-08-31T23:31:54.931Z,13.70
2017-08-31T23:34:22.569Z,14.43
2017-08-31T23:36:51.038Z,14.25
2017-08-31T23:39:18.659Z,14.68
2017-08-31T23:41:46.234Z,12.98
2017-08-31T23:44:13.818Z,12.13
2017-08-31T23:46:41.433Z,11.88
2017-08-31T23:49:09.013Z,12.80
2017-08-31T23:51:36.671Z,13.68
2017-08-31T23:54:04.275Z,14.93
2017-08-31T23:56:31.890Z,13.62
2017-08-31T23:58:59.515Z,15.60
